Time;durP1;ratioP1;P1;durP2;ratioP2;P2;SDS_P1;SDS_P2;PMS_P1;PMS_P2;Temp;Humidity;BMP_temperature;BMP_pressure;BME280_temperature;BME280_humidity;BME280_pressure;Samples;Min_cycle;Max_cycle;Signal;HPM_P1;HPM_P2
2021/12/03 00:02:03;;;;;;;0.40;0.40;;;-1.90;99.90;;;;;;4996041;28;20435;-68
2021/12/03 00:04:50;;;;;;;0.40;0.40;;;-1.90;99.90;;;;;;4995314;28;20432;-68
2021/12/03 00:07:41;;;;;;;1.53;1.43;;;-2.00;99.90;;;;;;4995474;28;20435;-68
2021/12/03 00:10:28;;;;;;;0.40;0.40;;;-1.90;99.90;;;;;;4995312;28;20462;-67
2021/12/03 00:13:15;;;;;;;0.40;0.40;;;-1.90;99.90;;;;;;4994634;28;20450;-69
2021/12/03 00:16:03;;;;;;;0.40;0.40;;;-2.00;99.90;;;;;;4994216;28;20435;-68
2021/12/03 00:18:50;;;;;;;0.40;0.40;;;-2.00;99.90;;;;;;4993575;28;20540;-68
2021/12/03 00:21:37;;;;;;;0.40;0.40;;;-2.00;99.90;;;;;;4993857;28;20451;-68
2021/12/03 00:24:26;;;;;;;0.40;0.40;;;-2.00;99.90;;;;;;4993765;28;20424;-68
2021/12/03 00:27:13;;;;;;;3.50;1.33;;;;;;;;;;4992527;28;20427;-68
2021/12/03 00:30:00;;;;;;;0.40;0.40;;;-2.00;99.90;;;;;;4993396;28;20487;-69
2021/12/03 00:32:47;;;;;;;0.40;0.40;;;;;;;;;;4993498;28;20857;-67
2021/12/03 00:35:34;;;;;;;0.40;0.40;;;-2.10;99.90;;;;;;4993676;28;20538;-67
2021/12/03 00:38:22;;;;;;;0.40;0.40;;;-2.00;99.90;;;;;;4993786;28;20431;-68
2021/12/03 00:41:13;;;;;;;0.50;0.50;;;-2.10;99.90;;;;;;4993373;28;20459;-66
2021/12/03 00:44:01;;;;;;;0.40;0.40;;;-2.00;99.90;;;;;;5008333;28;20445;-67
2021/12/03 00:46:48;;;;;;;0.40;0.40;;;-2.00;99.90;;;;;;5013157;28;20430;-68
2021/12/03 00:49:34;;;;;;;0.40;0.40;;;-2.00;99.90;;;;;;5012049;28;20466;-67
2021/12/03 00:52:22;;;;;;;0.40;0.40;;;;;;;;;;5012192;28;20454;-67
2021/12/03 00:55:10;;;;;;;0.40;0.40;;;-1.60;99.90;;;;;;5013419;28;20528;-67
2021/12/03 00:57:58;;;;;;;0.57;0.57;;;-2.00;99.90;;;;;;5012852;28;20998;-67
2021/12/03 01:00:45;;;;;;;0.97;0.60;;;-2.00;99.90;;;;;;5011809;28;20529;-66
2021/12/03 01:03:32;;;;;;;0.40;0.40;;;-1.90;99.90;;;;;;5012053;28;20462;-67
2021/12/03 01:06:19;;;;;;;0.40;0.40;;;-2.30;99.90;;;;;;5013235;28;20430;-67
2021/12/03 01:09:06;;;;;;;0.40;0.40;;;;;;;;;;5012742;28;20447;-67
2021/12/03 01:11:53;;;;;;;0.40;0.40;;;-1.70;99.90;;;;;;5013266;28;20418;-67
2021/12/03 01:14:42;;;;;;;0.40;0.40;;;-1.90;99.90;;;;;;5012289;28;20422;-67
2021/12/03 01:17:29;;;;;;;0.50;0.50;;;-1.90;99.90;;;;;;5012011;28;20498;-66
2021/12/03 01:20:17;;;;;;;0.90;0.60;;;;;;;;;;5012705;28;20477;-67
2021/12/03 01:23:05;;;;;;;0.40;0.40;;;-1.80;99.90;;;;;;5012074;28;20981;-67
2021/12/03 01:25:52;;;;;;;0.83;0.50;;;-1.90;99.90;;;;;;5012152;28;20430;-68
2021/12/03 01:28:39;;;;;;;0.40;0.40;;;-1.90;99.90;;;;;;5012212;28;20422;-68
2021/12/03 01:31:27;;;;;;;0.40;0.40;;;-1.80;99.90;;;;;;5011696;28;20465;-69
2021/12/03 01:34:15;;;;;;;0.80;0.80;;;-1.90;99.90;;;;;;5012827;28;20427;-68
2021/12/03 01:37:02;;;;;;;0.50;0.50;;;-1.90;99.90;;;;;;5012830;28;20429;-67
2021/12/03 01:39:49;;;;;;;0.40;0.40;;;-1.70;99.90;;;;;;5012276;28;20513;-67
2021/12/03 01:42:37;;;;;;;0.90;0.90;;;-1.80;99.90;;;;;;5008876;28;20432;-67
2021/12/03 01:45:30;;;;;;;0.60;0.60;;;-1.90;99.90;;;;;;4992945;28;20840;-67
2021/12/03 01:48:18;;;;;;;0.40;0.40;;;-1.70;99.90;;;;;;4992673;28;20634;-67
2021/12/03 01:51:06;;;;;;;0.40;0.40;;;-1.70;99.90;;;;;;4992353;28;21085;-68
2021/12/03 01:53:54;;;;;;;1.70;1.00;;;-1.70;99.90;;;;;;4992506;28;20511;-68
2021/12/03 01:56:42;;;;;;;0.40;0.40;;;;;;;;;;4992740;28;20510;-70
2021/12/03 01:59:29;;;;;;;0.40;0.40;;;-1.70;99.90;;;;;;4992092;28;20881;-67
2021/12/03 02:02:16;;;;;;;0.50;0.50;;;;;;;;;;4992819;28;20454;-67
2021/12/03 02:05:05;;;;;;;0.50;0.50;;;-1.80;99.90;;;;;;4992491;28;20462;-70
2021/12/03 02:07:53;;;;;;;0.40;0.40;;;-1.70;99.90;;;;;;4992520;28;20432;-68
2021/12/03 02:10:41;;;;;;;1.03;0.67;;;-1.70;99.90;;;;;;4992082;28;20447;-67
2021/12/03 02:13:28;;;;;;;0.40;0.40;;;-1.60;99.90;;;;;;4992377;28;20502;-70
2021/12/03 02:16:17;;;;;;;0.50;0.50;;;-1.60;99.90;;;;;;4992661;28;20427;-66
2021/12/03 02:19:04;;;;;;;0.40;0.40;;;-1.60;99.90;;;;;;4992174;28;20459;-68
2021/12/03 02:21:52;;;;;;;0.40;0.40;;;-1.60;99.90;;;;;;4992192;28;20562;-67
2021/12/03 02:24:39;;;;;;;0.40;0.40;;;-1.50;99.90;;;;;;4991940;28;20436;-68
2021/12/03 02:27:26;;;;;;;0.40;0.40;;;-1.50;99.90;;;;;;4992834;28;20467;-68
2021/12/03 02:30:13;;;;;;;0.90;0.90;;;-1.50;99.90;;;;;;4992400;28;20490;-67
2021/12/03 02:33:00;;;;;;;0.40;0.40;;;-1.50;99.90;;;;;;4992599;28;20518;-67
2021/12/03 02:35:47;;;;;;;0.40;0.40;;;-1.40;99.90;;;;;;5000039;28;20423;-68
2021/12/03 02:38:35;;;;;;;0.40;0.40;;;-1.40;99.90;;;;;;5008083;28;20454;-67
2021/12/03 02:41:22;;;;;;;0.40;0.40;;;-1.40;99.90;;;;;;4998370;28;21010;-67
2021/12/03 02:44:10;;;;;;;0.40;0.40;;;;;;;;;;5011926;28;20474;-68
2021/12/03 02:46:56;;;;;;;0.40;0.40;;;-1.30;99.90;;;;;;5015206;28;20513;-68
2021/12/03 02:49:43;;;;;;;0.40;0.40;;;-1.20;99.90;;;;;;5009163;28;21065;-68
2021/12/03 02:52:30;;;;;;;0.40;0.40;;;-1.20;99.90;;;;;;5015009;28;20446;-67
2021/12/03 02:55:19;;;;;;;0.40;0.40;;;-1.20;99.90;;;;;;5014222;28;20850;-68
2021/12/03 02:58:06;;;;;;;0.40;0.40;;;-1.20;99.90;;;;;;5014450;28;20426;-68
2021/12/03 03:00:54;;;;;;;0.40;0.40;;;-1.30;99.90;;;;;;5015120;28;21031;-67
2021/12/03 03:03:41;;;;;;;0.50;0.50;;;-1.30;99.90;;;;;;5015713;28;20966;-68
2021/12/03 03:06:28;;;;;;;0.50;0.50;;;-1.20;99.90;;;;;;5015239;28;20450;-68
2021/12/03 03:09:15;;;;;;;0.40;0.40;;;-1.20;99.90;;;;;;5014113;28;20426;-68
2021/12/03 03:12:03;;;;;;;0.40;0.40;;;-1.20;99.90;;;;;;5015474;28;20469;-68
2021/12/03 03:14:54;;;;;;;0.40;0.40;;;-1.20;99.90;;;;;;5013113;28;20434;-67
2021/12/03 03:17:42;;;;;;;0.70;0.70;;;-1.20;99.90;;;;;;5014906;28;20435;-67
2021/12/03 03:20:28;;;;;;;0.40;0.40;;;-1.20;99.90;;;;;;5014928;28;20508;-67
2021/12/03 03:23:18;;;;;;;0.40;0.40;;;-1.20;99.90;;;;;;5015373;28;20458;-67
2021/12/03 03:26:05;;;;;;;0.40;0.40;;;-1.20;99.90;;;;;;5014950;28;20470;-67
2021/12/03 03:28:56;;;;;;;1.77;1.67;;;-1.30;99.90;;;;;;5015015;28;20426;-67
2021/12/03 03:31:43;;;;;;;7.77;1.87;;;;;;;;;;5014866;28;20569;-67
2021/12/03 03:34:30;;;;;;;0.40;0.40;;;-1.20;99.90;;;;;;5014984;28;20513;-67
2021/12/03 03:37:18;;;;;;;0.40;0.40;;;-1.20;99.90;;;;;;5014849;28;20422;-68
2021/12/03 03:40:06;;;;;;;0.40;0.40;;;-1.20;99.90;;;;;;5013353;28;20476;-67
2021/12/03 03:42:53;;;;;;;0.40;0.40;;;;;;;;;;5014026;28;20489;-67
2021/12/03 03:45:42;;;;;;;0.40;0.40;;;-1.20;99.90;;;;;;5012736;28;21070;-67
2021/12/03 03:48:29;;;;;;;0.40;0.40;;;-1.30;99.90;;;;;;5013068;28;20423;-67
2021/12/03 03:51:16;;;;;;;0.40;0.40;;;-1.30;99.90;;;;;;5013880;28;20439;-69
2021/12/03 03:54:04;;;;;;;0.40;0.40;;;;;;;;;;5013539;28;20429;-68
2021/12/03 03:56:51;;;;;;;0.40;0.40;;;-1.20;99.90;;;;;;5013408;28;20620;-69
2021/12/03 03:59:38;;;;;;;0.40;0.40;;;-1.20;99.90;;;;;;5012906;28;20467;-68
2021/12/03 04:02:26;;;;;;;0.40;0.40;;;-1.10;99.90;;;;;;5014187;28;20784;-67
2021/12/03 04:05:14;;;;;;;0.40;0.40;;;-1.10;99.90;;;;;;5013179;28;20461;-67
2021/12/03 04:08:01;;;;;;;0.40;0.40;;;-1.00;99.90;;;;;;5013709;28;20458;-67
2021/12/03 04:10:48;;;;;;;0.60;0.47;;;;;;;;;;5012601;28;20498;-67
2021/12/03 04:13:35;;;;;;;0.40;0.40;;;-1.00;99.90;;;;;;5013448;28;20429;-67
2021/12/03 04:16:23;;;;;;;0.47;0.47;;;;;;;;;;5013294;28;20418;-67
2021/12/03 04:19:11;;;;;;;1.57;1.57;;;-0.90;99.90;;;;;;5013243;28;20430;-66
2021/12/03 04:21:58;;;;;;;0.40;0.40;;;-0.90;99.90;;;;;;5013045;28;20851;-66
2021/12/03 04:24:45;;;;;;;0.40;0.40;;;-0.80;99.90;;;;;;5013620;28;20454;-66
2021/12/03 04:27:32;;;;;;;0.40;0.40;;;-0.80;99.90;;;;;;5013305;28;20434;-67
2021/12/03 04:30:23;;;;;;;0.40;0.40;;;-0.90;99.90;;;;;;5013580;28;20461;-67
2021/12/03 04:33:10;;;;;;;0.40;0.40;;;-0.90;99.90;;;;;;5012100;28;20430;-68
2021/12/03 04:35:58;;;;;;;0.40;0.40;;;-1.20;99.90;;;;;;5012106;28;20470;-67
2021/12/03 04:38:45;;;;;;;0.40;0.40;;;-0.90;99.90;;;;;;5004389;28;20423;-68
2021/12/03 04:41:32;;;;;;;0.50;0.50;;;-0.90;99.90;;;;;;4993049;28;20506;-67
2021/12/03 04:44:19;;;;;;;0.40;0.40;;;-0.80;99.90;;;;;;5010660;28;20521;-67
2021/12/03 04:47:07;;;;;;;0.63;0.63;;;-0.80;99.90;;;;;;4999342;28;20428;-67
2021/12/03 04:49:53;;;;;;;0.50;0.50;;;-0.70;99.90;;;;;;4992302;28;20450;-66
2021/12/03 04:52:42;;;;;;;0.40;0.40;;;-0.70;99.90;;;;;;4993465;28;20424;-67
2021/12/03 04:55:29;;;;;;;0.40;0.40;;;-0.70;99.90;;;;;;4993265;28;20432;-67
2021/12/03 04:58:16;;;;;;;0.40;0.40;;;;;;;;;;4993275;28;20459;-68
2021/12/03 05:01:03;;;;;;;0.67;0.60;;;-0.70;99.90;;;;;;4993811;28;20507;-66
2021/12/03 05:03:50;;;;;;;0.40;0.40;;;-0.60;99.90;;;;;;4993377;28;20419;-67
2021/12/03 05:06:53;;;;;;;0.53;0.53;;;-0.60;99.90;;;;;;4993614;28;20430;-67
2021/12/03 05:09:41;;;;;;;0.40;0.40;;;-0.60;99.90;;;;;;4992885;28;20438;-67
2021/12/03 05:12:28;;;;;;;0.70;0.60;;;;;;;;;;4994494;28;20431;-69
2021/12/03 05:15:15;;;;;;;0.40;0.40;;;-0.60;99.90;;;;;;4994127;28;20805;-66
2021/12/03 05:18:02;;;;;;;0.43;0.43;;;;;;;;;;4993306;28;20511;-69
2021/12/03 05:20:51;;;;;;;0.60;0.60;;;-0.60;99.90;;;;;;4992869;28;20561;-67
2021/12/03 05:23:38;;;;;;;0.40;0.40;;;-0.50;99.90;;;;;;4993873;28;20430;-67
2021/12/03 05:26:26;;;;;;;0.50;0.50;;;-0.60;99.90;;;;;;4994046;28;20812;-67
2021/12/03 05:29:14;;;;;;;0.73;0.73;;;-0.60;99.90;;;;;;4993775;28;20423;-67
2021/12/03 05:32:01;;;;;;;0.50;0.50;;;-0.60;99.90;;;;;;4998810;28;20431;-67
2021/12/03 05:34:48;;;;;;;0.60;0.60;;;-0.60;99.90;;;;;;4994982;28;20423;-67
2021/12/03 05:37:35;;;;;;;0.50;0.50;;;-0.50;99.90;;;;;;4993512;28;20426;-67
2021/12/03 05:40:22;;;;;;;0.87;0.87;;;-0.50;99.90;;;;;;4993129;28;20507;-68
2021/12/03 05:43:11;;;;;;;1.80;1.80;;;-0.50;99.90;;;;;;5001573;28;20427;-67
2021/12/03 05:45:58;;;;;;;0.40;0.40;;;-0.50;99.90;;;;;;5013174;28;20490;-67
2021/12/03 05:48:44;;;;;;;0.40;0.40;;;-0.50;99.90;;;;;;5012440;28;20496;-68
2021/12/03 05:51:31;;;;;;;0.70;0.70;;;-0.50;99.90;;;;;;5011935;28;20863;-67
2021/12/03 05:54:19;;;;;;;0.40;0.40;;;-0.50;99.90;;;;;;5012052;28;20477;-68
2021/12/03 05:57:06;;;;;;;1.57;0.63;;;-0.50;99.90;;;;;;5013489;28;20431;-67
2021/12/03 05:59:54;;;;;;;2.10;1.50;;;-0.40;99.90;;;;;;5012863;28;20439;-67
2021/12/03 06:02:42;;;;;;;1.20;1.10;;;-0.40;99.90;;;;;;5012131;28;20434;-69
2021/12/03 06:05:29;;;;;;;0.73;0.57;;;-0.40;99.90;;;;;;5012265;28;20785;-67
2021/12/03 06:08:16;;;;;;;0.50;0.50;;;-0.30;99.90;;;;;;5013859;28;20427;-68
2021/12/03 06:11:03;;;;;;;0.60;0.60;;;-0.40;99.90;;;;;;5017026;28;20803;-67
2021/12/03 06:13:50;;;;;;;0.60;0.60;;;-0.30;99.90;;;;;;5015669;28;20513;-67
2021/12/03 06:16:39;;;;;;;0.50;0.50;;;-0.20;99.90;;;;;;5015340;28;20426;-67
2021/12/03 06:19:26;;;;;;;0.40;0.40;;;-0.20;99.90;;;;;;5016063;28;20442;-67
2021/12/03 06:22:13;;;;;;;1.27;1.13;;;;;;;;;;5015429;28;20966;-68
2021/12/03 06:25:01;;;;;;;0.60;0.60;;;-0.20;99.90;;;;;;5016804;28;20427;-67
2021/12/03 06:27:49;;;;;;;1.30;0.77;;;-0.20;99.90;;;;;;5017316;28;20531;-71
2021/12/03 06:30:37;;;;;;;0.50;0.50;;;-0.20;99.90;;;;;;5020585;28;20451;-69
2021/12/03 06:33:25;;;;;;;2.40;1.43;;;-0.20;99.90;;;;;;5020194;28;20430;-67
2021/12/03 06:36:12;;;;;;;1.23;0.80;;;-0.10;99.90;;;;;;5020625;28;20431;-67
2021/12/03 06:39:00;;;;;;;0.77;0.50;;;;;;;;;;5018192;28;20418;-70
2021/12/03 06:41:46;;;;;;;1.53;1.43;;;0.00;99.90;;;;;;5015948;28;20625;-69
2021/12/03 06:44:34;;;;;;;0.63;0.63;;;-0.20;99.90;;;;;;4991789;28;20438;-68
2021/12/03 06:47:20;;;;;;;0.40;0.40;;;-0.20;99.90;;;;;;4994869;28;20847;-70
2021/12/03 06:50:13;;;;;;;3.80;1.80;;;-0.10;99.90;;;;;;5014516;28;20438;-67
2021/12/03 06:53:02;;;;;;;1.40;0.67;;;-0.20;99.90;;;;;;5015089;28;20426;-67
2021/12/03 06:55:53;;;;;;;0.50;0.50;;;-0.80;99.90;;;;;;5013940;28;20469;-68
2021/12/03 06:58:40;;;;;;;0.50;0.50;;;-0.10;99.90;;;;;;5014738;28;20423;-67
2021/12/03 07:01:27;;;;;;;0.70;0.70;;;-0.10;99.90;;;;;;5013990;28;20469;-68
2021/12/03 07:04:14;;;;;;;1.37;1.27;;;-0.10;99.90;;;;;;5014195;28;20437;-67
2021/12/03 07:07:03;;;;;;;0.40;0.40;;;-0.10;99.90;;;;;;5013449;28;20442;-67
2021/12/03 07:09:50;;;;;;;2.00;1.07;;;;;;;;;;5014675;28;20982;-69
2021/12/03 07:12:37;;;;;;;0.83;0.80;;;0.00;99.90;;;;;;5014958;28;20423;-68
2021/12/03 07:15:25;;;;;;;0.40;0.40;;;;;;;;;;5012389;28;20477;-68
2021/12/03 07:18:12;;;;;;;0.40;0.40;;;-0.10;99.90;;;;;;5012455;28;21017;-67
2021/12/03 07:20:59;;;;;;;0.40;0.40;;;-0.10;99.90;;;;;;5008873;28;20845;-69
2021/12/03 07:23:49;;;;;;;0.40;0.40;;;0.00;99.90;;;;;;5015250;28;20903;-68
2021/12/03 07:26:37;;;;;;;0.53;0.53;;;;;;;;;;5013225;28;20486;-67
2021/12/03 07:29:24;;;;;;;0.40;0.40;;;0.10;99.90;;;;;;5012010;28;20450;-72
2021/12/03 07:32:11;;;;;;;1.27;1.17;;;;;;;;;;4999783;28;20583;-68
2021/12/03 07:34:59;;;;;;;2.10;1.53;;;0.20;99.90;;;;;;5006243;28;20439;-68
2021/12/03 07:37:46;;;;;;;0.40;0.40;;;;;;;;;;5005107;28;20469;-68
2021/12/03 07:40:34;;;;;;;3.03;1.23;;;0.20;99.90;;;;;;5013955;28;20822;-69
2021/12/03 07:43:22;;;;;;;1.40;1.10;;;0.30;99.90;;;;;;5005875;28;20436;-68
2021/12/03 07:46:10;;;;;;;0.50;0.50;;;;;;;;;;4999015;28;20486;-68
2021/12/03 07:48:57;;;;;;;0.80;0.63;;;;;;;;;;5003441;28;20944;-68
2021/12/03 07:51:44;;;;;;;0.70;0.70;;;0.40;99.90;;;;;;5010796;28;20497;-69
2021/12/03 07:54:31;;;;;;;0.50;0.50;;;0.30;99.90;;;;;;5012906;28;20438;-68
2021/12/03 07:57:19;;;;;;;1.03;1.03;;;0.50;99.90;;;;;;5012892;28;20940;-67
2021/12/03 08:00:08;;;;;;;0.90;0.70;;;1.40;99.90;;;;;;5013655;28;20454;-68
2021/12/03 08:02:55;;;;;;;1.23;1.07;;;3.30;99.90;;;;;;5013950;28;20449;-68
2021/12/03 08:05:42;;;;;;;0.40;0.40;;;;;;;;;;5013414;28;20449;-68
2021/12/03 08:08:30;;;;;;;0.40;0.40;;;0.50;99.90;;;;;;5014341;28;20501;-68
2021/12/03 08:11:17;;;;;;;1.13;1.10;;;2.00;99.90;;;;;;5014142;28;20479;-69
2021/12/03 08:14:06;;;;;;;0.87;0.87;;;0.70;99.90;;;;;;5012965;28;20942;-67
2021/12/03 08:16:53;;;;;;;0.50;0.50;;;0.80;99.90;;;;;;5013198;28;20431;-68
2021/12/03 08:19:40;;;;;;;0.40;0.40;;;0.80;99.90;;;;;;5012594;28;20430;-69
2021/12/03 08:22:27;;;;;;;0.60;0.60;;;0.90;99.90;;;;;;5002143;28;20471;-70
2021/12/03 08:25:14;;;;;;;0.40;0.40;;;1.00;99.90;;;;;;4994044;28;20416;-69
2021/12/03 08:28:01;;;;;;;0.40;0.40;;;1.00;99.90;;;;;;4992903;28;20463;-68
2021/12/03 08:30:49;;;;;;;1.73;0.70;;;1.00;99.90;;;;;;4997122;28;20459;-68
2021/12/03 08:33:36;;;;;;;0.70;0.70;;;1.10;99.90;;;;;;5002741;28;20434;-67
2021/12/03 08:36:23;;;;;;;2.33;0.90;;;1.30;99.90;;;;;;4994248;28;20439;-67
2021/12/03 08:39:11;;;;;;;0.50;0.50;;;;;;;;;;4994306;28;20813;-68
2021/12/03 08:41:58;;;;;;;0.87;0.83;;;;;;;;;;4993518;28;20463;-67
2021/12/03 08:44:46;;;;;;;0.40;0.40;;;;;;;;;;4993610;28;21135;-71
2021/12/03 08:47:36;;;;;;;0.50;0.50;;;1.60;99.90;;;;;;4992030;28;20578;-70
2021/12/03 08:50:29;;;;;;;0.40;0.40;;;1.90;99.90;;;;;;4992466;28;20459;-69
2021/12/03 08:54:48;;;;;;;0.50;0.50;;;1.70;99.90;;;;;;4993246;28;20423;-71
2021/12/03 08:56:29;;;;;;;0.40;0.40;;;1.80;99.90;;;;;;4990820;28;20454;-72
2021/12/03 08:59:16;;;;;;;0.40;0.40;;;1.80;99.90;;;;;;4992547;28;20427;-68
2021/12/03 09:02:03;;;;;;;0.80;0.80;;;1.90;99.90;;;;;;4992874;28;20469;-68
2021/12/03 09:04:52;;;;;;;2.87;0.87;;;1.90;99.90;;;;;;4993558;28;20432;-68
2021/12/03 09:07:39;;;;;;;0.40;0.40;;;2.00;99.90;;;;;;4992415;28;20429;-70
2021/12/03 09:10:26;;;;;;;0.40;0.40;;;2.20;99.90;;;;;;4993469;28;20507;-70
2021/12/03 09:13:13;;;;;;;0.70;0.60;;;2.20;99.90;;;;;;4999616;28;20851;-69
2021/12/03 09:16:03;;;;;;;2.57;0.93;;;2.30;99.90;;;;;;5003674;28;20426;-67
2021/12/03 09:18:52;;;;;;;0.47;0.47;;;2.30;99.90;;;;;;5005846;28;20462;-67
2021/12/03 09:21:40;;;;;;;0.40;0.40;;;2.40;99.90;;;;;;5012035;28;20831;-68
2021/12/03 09:24:31;;;;;;;1.40;0.67;;;2.40;99.90;;;;;;5010306;28;20442;-68
2021/12/03 09:27:19;;;;;;;0.83;0.83;;;2.40;99.90;;;;;;5011340;28;20434;-68
2021/12/03 09:30:09;;;;;;;0.40;0.40;;;2.40;99.90;;;;;;5010571;28;20458;-68
2021/12/03 09:32:57;;;;;;;1.17;1.07;;;2.40;99.90;;;;;;5001199;28;20932;-68
2021/12/03 09:35:46;;;;;;;1.47;1.00;;;2.50;99.90;;;;;;5002300;28;20438;-67
2021/12/03 09:38:35;;;;;;;0.50;0.50;;;2.50;99.90;;;;;;5000537;28;20794;-68
2021/12/03 09:41:22;;;;;;;0.40;0.40;;;2.20;99.90;;;;;;5009464;28;20458;-68
2021/12/03 09:44:09;;;;;;;0.70;0.70;;;2.60;99.90;;;;;;5007410;28;20839;-67
2021/12/03 09:46:56;;;;;;;0.90;0.90;;;2.60;99.90;;;;;;5011032;28;20422;-71
2021/12/03 09:49:44;;;;;;;0.60;0.60;;;2.70;99.90;;;;;;5015541;28;20524;-68
2021/12/03 09:52:36;;;;;;;0.60;0.60;;;2.70;99.90;;;;;;5016356;28;20779;-68
2021/12/03 09:55:24;;;;;;;0.73;0.73;;;2.70;99.90;;;;;;5005997;28;20569;-68
2021/12/03 09:58:19;;;;;;;4.30;1.37;;;2.70;99.90;;;;;;5016269;28;20421;-68
2021/12/03 10:01:10;;;;;;;2.20;1.47;;;2.60;99.90;;;;;;5016316;28;20942;-68
2021/12/03 10:04:10;;;;;;;0.50;0.50;;;2.60;99.90;;;;;;5014936;28;20445;-68
2021/12/03 10:10:37;;;;;;;0.40;0.40;;;2.60;99.90;;;;;;5015669;28;20433;-69
2021/12/03 10:13:28;;;;;;;0.63;0.63;;;2.70;99.90;;;;;;5016412;28;20418;-69
2021/12/03 10:16:35;;;;;;;0.50;0.50;;;2.80;99.90;;;;;;5014896;28;20460;-69
2021/12/03 10:19:31;;;;;;;0.70;0.70;;;2.80;99.90;;;;;;5015576;28;20426;-69
2021/12/03 10:22:35;;;;;;;0.50;0.50;;;2.80;99.90;;;;;;5016155;28;20505;-69
2021/12/03 10:25:45;;;;;;;0.40;0.40;;;2.90;99.90;;;;;;5016742;28;20433;-68
2021/12/03 10:32:20;;;;;;;1.40;1.30;;;2.90;99.90;;;;;;4956296;28;20436;-68
2021/12/03 10:38:44;;;;;;;0.40;0.40;;;3.00;99.90;;;;;;4997314;28;20954;-69
2021/12/03 10:41:43;;;;;;;0.50;0.50;;;3.00;99.90;;;;;;5007999;28;20466;-68
2021/12/03 10:44:50;;;;;;;0.40;0.40;;;3.10;99.90;;;;;;5002229;28;20423;-69
2021/12/03 10:47:52;;;;;;;0.70;0.63;;;3.20;99.90;;;;;;5000869;28;20560;-68
2021/12/03 10:53:53;;;;;;;0.80;0.80;;;3.30;99.90;;;;;;5004747;28;20417;-69
2021/12/03 10:56:55;;;;;;;3.13;0.63;;;3.20;99.90;;;;;;5004442;28;20557;-70
2021/12/03 11:00:24;;;;;;;0.50;0.50;;;3.20;99.90;;;;;;5005791;28;20423;-69
2021/12/03 11:06:47;;;;;;;0.70;0.70;;;3.10;99.90;;;;;;5004711;28;20528;-68
2021/12/03 11:16:32;;;;;;;0.80;0.77;;;3.10;99.90;;;;;;4990603;28;20434;-67
2021/12/03 11:38:33;;;;;;;0.60;0.60;;;3.60;99.90;;;;;;5016867;28;20466;-67
2021/12/03 12:20:25;;;;;;;0.40;0.40;;;3.80;99.90;;;;;;4977599;28;20463;-67
2021/12/03 12:24:01;;;;;;;0.40;0.40;;;4.00;99.90;;;;;;4995283;28;20534;-67
2021/12/03 13:09:08;;;;;;;0.40;0.40;;;4.20;99.90;;;;;;5030735;28;20471;-68
2021/12/03 13:21:43;;;;;;;0.60;0.60;;;4.00;99.90;;;;;;5093634;28;20524;-68
2021/12/03 14:02:25;;;;;;;0.40;0.40;;;3.60;99.90;;;;;;5107016;28;20437;-69
2021/12/03 14:36:56;;;;;;;0.40;0.40;;;3.30;99.90;;;;;;5107745;28;20456;-69
2021/12/03 14:40:12;;;;;;;0.40;0.40;;;3.30;99.90;;;;;;5100768;28;20443;-70
2021/12/03 14:52:19;;;;;;;0.40;0.40;;;3.20;99.90;;;;;;5094950;28;20874;-69
2021/12/03 14:55:10;;;;;;;0.43;0.43;;;3.20;99.90;;;;;;5094795;28;20994;-69
2021/12/03 14:58:02;;;;;;;0.50;0.50;;;3.10;99.90;;;;;;5094544;28;20422;-69
2021/12/03 15:00:55;;;;;;;0.40;0.40;;;3.10;99.90;;;;;;5093750;28;20419;-69
2021/12/03 15:07:01;;;;;;;0.43;0.43;;;3.10;99.90;;;;;;5094155;28;20407;-69
2021/12/03 15:09:50;;;;;;;0.50;0.50;;;3.00;99.90;;;;;;5093881;28;20957;-70
2021/12/03 15:12:59;;;;;;;0.40;0.40;;;3.10;99.90;;;;;;5094403;28;20444;-70
2021/12/03 15:19:09;;;;;;;0.50;0.50;;;3.00;99.90;;;;;;5092843;28;20502;-69
2021/12/03 15:22:08;;;;;;;0.50;0.50;;;3.00;99.90;;;;;;5093726;28;20960;-70
2021/12/03 15:25:01;;;;;;;0.40;0.40;;;3.00;99.90;;;;;;5093711;28;20450;-70
2021/12/03 15:28:02;;;;;;;0.40;0.40;;;3.00;99.90;;;;;;5093657;28;20421;-69
2021/12/03 15:31:03;;;;;;;1.43;0.73;;;3.00;99.90;;;;;;5093117;28;20831;-70
2021/12/03 15:33:55;;;;;;;0.70;0.70;;;3.00;99.90;;;;;;5093828;28;20426;-70
2021/12/03 15:36:59;;;;;;;0.40;0.40;;;3.00;99.90;;;;;;5094878;28;20942;-70
2021/12/03 15:40:07;;;;;;;0.53;0.53;;;2.90;99.90;;;;;;5096876;28;20439;-70
2021/12/03 15:55:51;;;;;;;0.50;0.50;;;3.00;99.90;;;;;;5033211;28;20429;-69
2021/12/03 16:04:47;;;;;;;0.40;0.40;;;2.90;99.90;;;;;;5093169;28;20419;-68
2021/12/03 16:10:47;;;;;;;0.40;0.40;;;2.80;99.90;;;;;;5092653;28;20468;-69
2021/12/03 16:13:44;;;;;;;0.40;0.40;;;2.80;99.90;;;;;;5094725;28;20561;-69
2021/12/03 16:17:00;;;;;;;0.40;0.40;;;2.70;99.90;;;;;;5095168;28;20746;-69
2021/12/03 16:20:06;;;;;;;0.40;0.40;;;2.70;99.90;;;;;;5092343;28;20468;-70
2021/12/03 16:23:11;;;;;;;0.50;0.50;;;2.70;99.90;;;;;;5093148;28;20426;-69
2021/12/03 16:26:20;;;;;;;0.40;0.40;;;2.70;99.90;;;;;;5092898;28;20423;-71
2021/12/03 16:48:18;;;;;;;0.40;0.40;;;2.80;99.90;;;;;;5089613;28;20818;-69
2021/12/03 16:54:09;;;;;;;0.70;0.70;;;2.90;99.90;;;;;;5091146;28;20417;-69
2021/12/03 16:56:56;;;;;;;1.07;0.97;;;2.90;99.90;;;;;;5092384;28;20438;-70
2021/12/03 16:59:45;;;;;;;0.40;0.40;;;2.90;99.90;;;;;;5091622;28;20434;-69
2021/12/03 17:02:36;;;;;;;0.70;0.70;;;2.90;99.90;;;;;;5092183;28;20791;-71
2021/12/03 17:05:38;;;;;;;0.50;0.50;;;2.90;99.90;;;;;;5091863;28;20506;-68
2021/12/03 17:08:34;;;;;;;0.40;0.40;;;3.00;99.90;;;;;;5091968;28;20486;-68
2021/12/03 17:11:39;;;;;;;0.57;0.57;;;3.00;99.90;;;;;;5093069;28;20454;-71
2021/12/03 17:30:27;;;;;;;0.50;0.50;;;3.20;99.90;;;;;;5091930;28;20898;-69
2021/12/03 17:49:13;;;;;;;0.50;0.50;;;3.00;99.90;;;;;;5089544;28;20721;-69
2021/12/03 17:52:22;;;;;;;0.40;0.40;;;3.00;99.90;;;;;;5090491;28;20425;-69
2021/12/03 17:55:22;;;;;;;0.40;0.40;;;3.10;99.90;;;;;;5091097;28;20425;-68
2021/12/03 17:58:19;;;;;;;0.50;0.50;;;3.10;99.90;;;;;;5093821;28;20418;-71
2021/12/03 18:01:11;;;;;;;0.70;0.70;;;3.10;99.90;;;;;;5095165;28;20418;-70
2021/12/03 18:04:07;;;;;;;0.67;0.50;;;3.10;99.90;;;;;;5099450;28;20415;-69
2021/12/03 18:07:03;;;;;;;0.50;0.50;;;3.10;99.90;;;;;;5092812;28;20479;-69
2021/12/03 18:10:11;;;;;;;3.33;1.03;;;3.10;99.90;;;;;;5096892;28;20572;-71
2021/12/03 18:13:16;;;;;;;0.40;0.40;;;3.10;99.90;;;;;;5096419;28;20419;-70
2021/12/03 18:16:36;;;;;;;0.40;0.40;;;3.10;99.90;;;;;;5095531;28;20430;-69
2021/12/03 18:44:11;;;;;;;1.83;1.70;;;2.90;99.90;;;;;;5111949;28;20427;-71
2021/12/03 18:47:26;;;;;;;0.40;0.40;;;2.80;99.90;;;;;;5099902;28;20456;-71
2021/12/03 18:50:39;;;;;;;0.50;0.50;;;2.80;99.90;;;;;;5098110;28;20463;-69
2021/12/03 18:53:43;;;;;;;0.50;0.50;;;2.80;99.90;;;;;;5098333;28;20429;-69
2021/12/03 18:56:34;;;;;;;1.63;1.37;;;2.80;99.90;;;;;;5097252;28;20931;-70
2021/12/03 18:59:24;;;;;;;0.50;0.50;;;2.90;99.90;;;;;;5097529;28;20469;-70
2021/12/03 19:02:11;;;;;;;0.40;0.40;;;3.00;99.90;;;;;;5096454;28;20791;-71
2021/12/03 19:05:02;;;;;;;0.40;0.40;;;3.00;99.90;;;;;;5096226;28;20449;-70
2021/12/03 19:07:51;;;;;;;0.70;0.70;;;3.00;99.90;;;;;;5095898;28;20419;-69
2021/12/03 19:10:44;;;;;;;1.27;0.77;;;3.00;99.90;;;;;;5095573;28;20551;-69
2021/12/03 19:13:37;;;;;;;1.73;1.20;;;3.00;99.90;;;;;;5096449;28;20423;-69
2021/12/03 19:16:25;;;;;;;1.20;1.03;;;3.00;99.90;;;;;;5100536;28;20426;-70
2021/12/03 19:19:14;;;;;;;0.80;0.80;;;2.90;99.90;;;;;;5093082;28;20462;-70
2021/12/03 19:22:04;;;;;;;0.50;0.50;;;2.90;99.90;;;;;;5074324;28;20411;-71
2021/12/03 19:24:55;;;;;;;0.40;0.40;;;2.90;99.90;;;;;;5074069;28;20455;-70
2021/12/03 19:27:43;;;;;;;0.40;0.40;;;2.90;99.90;;;;;;5073802;28;20426;-70
2021/12/03 19:30:32;;;;;;;0.90;0.80;;;2.90;99.90;;;;;;5075214;28;20515;-69
2021/12/03 19:33:19;;;;;;;1.90;1.47;;;2.90;99.90;;;;;;5074844;28;20416;-70
2021/12/03 19:36:06;;;;;;;0.60;0.60;;;2.90;99.90;;;;;;5074795;28;20450;-72
2021/12/03 19:38:56;;;;;;;2.23;1.50;;;3.00;99.90;;;;;;5074437;28;20450;-70
2021/12/03 19:41:47;;;;;;;2.60;1.43;;;3.00;99.90;;;;;;5074025;28;20428;-70
2021/12/03 19:44:39;;;;;;;0.93;0.80;;;3.00;99.90;;;;;;5055215;28;20428;-71
2021/12/03 19:47:35;;;;;;;0.47;0.47;;;3.10;99.90;;;;;;5053511;28;20473;-70
2021/12/03 19:50:28;;;;;;;0.40;0.40;;;3.10;99.90;;;;;;5053429;28;20460;-70
2021/12/03 19:53:17;;;;;;;0.50;0.50;;;3.10;99.90;;;;;;5053842;28;20427;-70
2021/12/03 19:56:04;;;;;;;0.40;0.40;;;3.10;99.90;;;;;;5053583;28;20436;-70
2021/12/03 19:58:52;;;;;;;0.70;0.70;;;3.20;99.90;;;;;;5053975;28;20479;-69
2021/12/03 20:01:39;;;;;;;2.40;1.17;;;3.20;99.90;;;;;;5054249;28;20416;-69
2021/12/03 20:04:28;;;;;;;0.50;0.50;;;3.20;99.90;;;;;;5060803;28;20417;-70
2021/12/03 20:07:15;;;;;;;0.43;0.43;;;3.20;99.90;;;;;;5057264;28;20519;-69
2021/12/03 20:10:08;;;;;;;0.43;0.43;;;3.20;99.90;;;;;;5052244;28;20476;-70
2021/12/03 20:12:56;;;;;;;0.40;0.40;;;3.10;99.90;;;;;;5054019;28;20809;-70
2021/12/03 20:15:51;;;;;;;0.50;0.50;;;3.10;99.90;;;;;;5052466;28;20478;-70
2021/12/03 20:18:41;;;;;;;2.40;0.60;;;3.10;99.90;;;;;;5052709;28;20459;-69
2021/12/03 20:21:30;;;;;;;0.40;0.40;;;3.00;99.90;;;;;;5052066;28;20463;-70
2021/12/03 20:24:27;;;;;;;0.40;0.40;;;3.00;99.90;;;;;;5052887;28;20439;-70